createdAt,value
2023-01-27T00:00:16.280Z,10.10
2023-01-27T00:02:44.428Z,9.90
2023-01-27T00:05:12.604Z,10.63
2023-01-27T00:07:39.395Z,10.20
2023-01-27T00:10:07.142Z,10.73
2023-01-27T00:12:53.801Z,10.93
2023-01-27T00:15:20.481Z,10.10
2023-01-27T00:17:47.182Z,11.18
2023-01-27T00:20:14.033Z,10.98
2023-01-27T00:23:00.823Z,10.47
2023-01-27T00:25:27.509Z,10.35
2023-01-27T00:27:54.211Z,10.85
2023-01-27T00:30:20.959Z,11.07
2023-01-27T00:33:07.552Z,11.88
2023-01-27T00:35:34.616Z,11.27
2023-01-27T00:38:01.410Z,11.20
2023-01-27T00:40:28.131Z,10.98
2023-01-27T00:42:54.821Z,11.45
2023-01-27T00:45:41.409Z,11.40
2023-01-27T00:48:08.095Z,10.93
2023-01-27T00:50:34.775Z,11.05
2023-01-27T00:53:02.308Z,11.68
2023-01-27T00:55:28.984Z,11.38
2023-01-27T00:57:55.629Z,10.85
2023-01-27T01:00:22.449Z,10.80
2023-01-27T01:02:49.204Z,10.85
2023-01-27T01:05:16.057Z,11.23
2023-01-27T01:07:42.760Z,10.27
2023-01-27T01:10:10.447Z,11.65
2023-01-27T01:12:37.276Z,11.48
2023-01-27T01:15:04.195Z,11.55
2023-01-27T01:17:30.852Z,12.45
2023-01-27T01:19:57.568Z,11.43
2023-01-27T01:22:24.265Z,11.38
2023-01-27T01:24:50.925Z,11.30
2023-01-27T01:27:17.656Z,10.80
2023-01-27T01:29:46.140Z,11.07
2023-01-27T01:32:12.803Z,11.40
2023-01-27T01:34:39.545Z,10.98
2023-01-27T01:37:06.317Z,11.38
2023-01-27T01:39:33.196Z,10.73
2023-01-27T01:41:59.909Z,10.63
2023-01-27T01:44:29.464Z,10.35
2023-01-27T01:46:56.587Z,10.88
2023-01-27T01:49:29.771Z,10.52
2023-01-27T01:52:02.672Z,10.20
2023-01-27T01:54:35.644Z,10.02
2023-01-27T01:57:03.783Z,9.18
2023-01-27T01:59:56.056Z,9.77
2023-01-27T02:02:26.336Z,9.82
2023-01-27T02:05:00.754Z,9.65
2023-01-27T02:07:35.604Z,9.43
2023-01-27T02:10:02.764Z,9.13
2023-01-27T02:12:29.469Z,9.63
2023-01-27T02:14:56.347Z,9.70
2023-01-27T02:17:22.985Z,9.60
2023-01-27T02:19:58.583Z,9.15
2023-01-27T02:22:36.271Z,9.00
2023-01-27T02:25:13.226Z,8.85
2023-01-27T02:27:40.184Z,9.38
2023-01-27T02:30:07.766Z,9.67
2023-01-27T02:32:34.723Z,9.88
2023-01-27T02:35:02.574Z,10.18
2023-01-27T02:37:31.793Z,10.27
2023-01-27T02:40:02.124Z,10.43
2023-01-27T02:42:28.853Z,9.95
2023-01-27T02:44:55.784Z,10.83
2023-01-27T02:47:22.631Z,10.18
2023-01-27T02:49:49.572Z,10.20
2023-01-27T02:52:18.842Z,10.48
2023-01-27T02:54:45.561Z,10.82
2023-01-27T02:57:12.247Z,10.18
2023-01-27T02:59:39.071Z,11.10
2023-01-27T03:02:07.025Z,10.93
2023-01-27T03:04:33.803Z,11.07
2023-01-27T03:07:00.434Z,11.48
2023-01-27T03:09:27.108Z,10.38
2023-01-27T03:12:13.694Z,11.63
2023-01-27T03:15:00.279Z,11.40
2023-01-27T03:17:46.979Z,12.13
2023-01-27T03:20:13.782Z,11.83
2023-01-27T03:22:40.556Z,11.40
2023-01-27T03:25:07.714Z,12.15
2023-01-27T03:27:35.297Z,11.70
2023-01-27T03:30:02.891Z,13.27
2023-01-27T03:32:31.579Z,12.02
2023-01-27T03:34:58.720Z,12.43
2023-01-27T03:37:46.114Z,12.43
2023-01-27T03:40:34.189Z,13.43
2023-01-27T03:43:21.648Z,13.25
2023-01-27T03:46:09.850Z,13.25
2023-01-27T03:48:36.990Z,13.43
2023-01-27T03:51:07.023Z,12.90
2023-01-27T03:53:35.337Z,13.75
2023-01-27T03:56:02.528Z,13.10
2023-01-27T03:58:31.311Z,13.43
2023-01-27T04:01:00.800Z,14.02
2023-01-27T04:03:50.040Z,13.70
2023-01-27T04:06:46.312Z,14.30
2023-01-27T04:09:17.783Z,13.02
2023-01-27T04:12:00.276Z,14.15
2023-01-27T04:14:31.639Z,12.95
2023-01-27T04:17:01.119Z,13.60
2023-01-27T04:19:28.410Z,13.50
2023-01-27T04:21:55.934Z,13.85
2023-01-27T04:24:22.869Z,14.52
2023-01-27T04:26:54.283Z,12.88
2023-01-27T04:29:22.917Z,13.23
2023-01-27T04:31:49.834Z,13.73
2023-01-27T04:34:17.441Z,13.52
2023-01-27T04:36:44.178Z,13.80
2023-01-27T04:39:11.413Z,14.23
2023-01-27T04:41:38.479Z,13.90
2023-01-27T04:44:06.082Z,14.25
2023-01-27T04:46:33.594Z,13.97
2023-01-27T04:49:01.193Z,13.30
2023-01-27T04:51:28.394Z,12.60
2023-01-27T04:53:55.758Z,12.83
2023-01-27T04:56:32.406Z,12.90
2023-01-27T04:59:01.478Z,11.48
2023-01-27T05:01:29.002Z,11.93
2023-01-27T05:03:56.419Z,11.80
2023-01-27T05:06:23.702Z,12.77
2023-01-27T05:08:50.946Z,12.02
2023-01-27T05:11:18.357Z,11.67
2023-01-27T05:13:45.541Z,11.77
2023-01-27T05:16:16.353Z,12.23
2023-01-27T05:18:45.113Z,11.10
2023-01-27T05:21:16.125Z,10.82
2023-01-27T05:23:43.647Z,11.07
2023-01-27T05:26:22.330Z,10.45
2023-01-27T05:28:50.010Z,9.88
2023-01-27T05:31:21.160Z,9.80
2023-01-27T05:33:50.711Z,10.40
2023-01-27T05:36:20.613Z,10.02
2023-01-27T05:38:47.440Z,10.40
2023-01-27T05:41:15.639Z,10.18
2023-01-27T05:43:47.330Z,9.93
2023-01-27T05:46:20.148Z,9.52
2023-01-27T05:48:48.965Z,9.25
2023-01-27T05:51:17.783Z,9.80
2023-01-27T05:53:45.084Z,9.77
2023-01-27T05:56:14.480Z,9.23
2023-01-27T05:58:41.649Z,10.00
2023-01-27T06:01:11.083Z,10.65
2023-01-27T06:03:38.900Z,9.90
2023-01-27T06:06:06.840Z,10.20
2023-01-27T06:08:34.236Z,10.18
2023-01-27T06:11:01.404Z,9.52
2023-01-27T06:13:28.794Z,9.15
2023-01-27T06:15:56.018Z,8.85
2023-01-27T06:18:23.794Z,12.75
2023-01-27T06:20:50.547Z,9.63
2023-01-27T06:23:18.098Z,10.45
2023-01-27T06:25:47.408Z,10.13
2023-01-27T06:28:28.102Z,10.05
2023-01-27T06:30:56.731Z,10.20
2023-01-27T06:33:23.737Z,11.43
2023-01-27T06:35:50.558Z,9.82
2023-01-27T06:38:17.244Z,9.50
2023-01-27T06:40:44.134Z,9.60
2023-01-27T06:43:13.740Z,9.70
2023-01-27T06:45:41.076Z,11.93
2023-01-27T06:48:08.758Z,10.25
2023-01-27T06:50:36.177Z,10.27
2023-01-27T06:53:05.956Z,9.48
2023-01-27T06:55:32.813Z,9.95
2023-01-27T06:58:00.961Z,9.63
2023-01-27T07:00:27.659Z,11.20
2023-01-27T07:02:56.665Z,10.20
2023-01-27T07:05:23.808Z,10.25
2023-01-27T07:07:50.698Z,10.93
2023-01-27T07:10:17.962Z,10.50
2023-01-27T07:12:44.714Z,14.65
2023-01-27T07:15:12.203Z,10.40
2023-01-27T07:17:38.926Z,9.15
2023-01-27T07:20:08.001Z,9.35
2023-01-27T07:22:34.787Z,9.52
2023-01-27T07:25:02.630Z,9.98
2023-01-27T07:27:29.547Z,9.77
2023-01-27T07:29:56.411Z,9.13
2023-01-27T07:32:23.186Z,22.67
2023-01-27T07:34:49.894Z,16.38
2023-01-27T07:37:16.942Z,19.75
2023-01-27T07:39:43.694Z,16.90
2023-01-27T07:42:10.414Z,17.15
2023-01-27T07:44:37.216Z,11.45
2023-01-27T07:47:03.959Z,9.70
2023-01-27T07:49:30.595Z,9.65
2023-01-27T07:51:57.279Z,9.50
2023-01-27T07:54:25.199Z,9.10
2023-01-27T07:56:52.109Z,10.95
2023-01-27T07:59:18.795Z,12.65
2023-01-27T08:01:48.071Z,10.68
2023-01-27T08:04:15.139Z,11.20
2023-01-27T08:06:41.846Z,12.10
2023-01-27T08:09:08.527Z,12.43
2023-01-27T08:11:35.554Z,12.05
2023-01-27T08:14:02.259Z,10.70
2023-01-27T08:16:29.577Z,13.02
2023-01-27T08:18:56.617Z,10.07
2023-01-27T08:21:25.087Z,10.63
2023-01-27T08:23:54.207Z,10.95
2023-01-27T08:26:20.885Z,10.35
2023-01-27T08:28:47.633Z,10.27
2023-01-27T08:31:16.847Z,10.45
2023-01-27T08:33:45.879Z,10.02
2023-01-27T08:36:18.227Z,9.85
2023-01-27T08:38:46.094Z,11.32
2023-01-27T08:41:15.173Z,10.20
2023-01-27T08:43:42.974Z,10.23
2023-01-27T08:46:10.407Z,9.43
2023-01-27T08:48:38.024Z,11.55
2023-01-27T08:51:06.589Z,11.05
2023-01-27T08:53:34.019Z,8.98
2023-01-27T08:56:05.786Z,9.35
2023-01-27T08:58:33.400Z,8.90
2023-01-27T09:01:02.195Z,9.90
2023-01-27T09:03:30.141Z,9.80
2023-01-27T09:05:57.048Z,9.20
2023-01-27T09:08:24.290Z,9.25
2023-01-27T09:10:50.994Z,9.50
2023-01-27T09:13:18.216Z,8.70
2023-01-27T09:15:46.199Z,9.40
2023-01-27T09:18:12.953Z,8.83
2023-01-27T09:20:39.744Z,9.45
2023-01-27T09:23:07.126Z,7.38
2023-01-27T09:25:33.798Z,8.38
2023-01-27T09:28:00.954Z,8.30
2023-01-27T09:30:29.086Z,8.25
2023-01-27T09:33:00.337Z,8.18
2023-01-27T09:35:35.360Z,8.80
2023-01-27T09:38:04.650Z,8.50
2023-01-27T09:40:32.820Z,9.60
2023-01-27T09:43:00.529Z,10.00
2023-01-27T09:45:47.148Z,7.30
2023-01-27T09:48:33.538Z,9.23
2023-01-27T09:51:31.159Z,9.30
2023-01-27T09:54:24.959Z,9.60
2023-01-27T09:57:11.517Z,10.02
2023-01-27T09:59:53.854Z,9.13
2023-01-27T10:02:21.550Z,9.63
2023-01-27T10:05:28.312Z,10.93
2023-01-27T10:08:27.865Z,7.95
2023-01-27T10:11:14.526Z,8.03
2023-01-27T10:13:53.951Z,8.60
2023-01-27T10:16:48.798Z,9.18
2023-01-27T10:19:30.755Z,8.63
2023-01-27T10:22:23.024Z,8.13
2023-01-27T10:24:50.748Z,7.82
2023-01-27T10:27:22.864Z,7.87
2023-01-27T10:30:24.343Z,8.80
2023-01-27T10:32:59.253Z,9.95
2023-01-27T10:35:47.907Z,9.77
2023-01-27T10:38:41.793Z,8.95
2023-01-27T10:41:48.329Z,8.80
2023-01-27T10:44:25.444Z,7.90
2023-01-27T10:47:12.082Z,11.75
2023-01-27T10:49:47.214Z,7.50
2023-01-27T10:52:19.706Z,9.98
2023-01-27T10:55:17.153Z,6.55
2023-01-27T10:57:51.748Z,7.63
2023-01-27T11:03:42.000Z,11.18
2023-01-27T11:06:15.647Z,9.00
2023-01-27T11:08:46.630Z,8.65
2023-01-27T11:11:36.054Z,7.47
2023-01-27T11:14:12.503Z,8.68
2023-01-27T11:16:42.991Z,10.77
2023-01-27T11:19:18.651Z,8.20
2023-01-27T11:21:50.755Z,8.60
2023-01-27T11:24:46.467Z,10.35
2023-01-27T11:27:25.380Z,8.55
2023-01-27T11:29:58.176Z,9.32
2023-01-27T11:32:51.001Z,9.15
2023-01-27T11:35:17.905Z,8.40
2023-01-27T11:37:49.763Z,7.82
2023-01-27T11:40:22.590Z,6.90
2023-01-27T11:42:51.773Z,7.75
2023-01-27T11:45:21.575Z,7.68
2023-01-27T11:47:54.020Z,7.15
2023-01-27T11:50:24.799Z,6.95
2023-01-27T11:53:00.815Z,7.75
2023-01-27T11:55:35.925Z,12.27
2023-01-27T11:58:14.777Z,7.33
2023-01-27T12:00:47.099Z,8.70
2023-01-27T12:03:20.585Z,7.07
2023-01-27T12:05:54.516Z,6.57
2023-01-27T12:08:39.629Z,7.00
2023-01-27T12:11:27.889Z,6.47
2023-01-27T12:13:58.390Z,6.55
2023-01-27T12:16:34.801Z,7.70
2023-01-27T12:19:05.885Z,5.57
2023-01-27T12:21:37.274Z,5.63
2023-01-27T12:24:05.860Z,7.07
2023-01-27T12:26:38.825Z,6.45
2023-01-27T12:29:14.337Z,9.40
2023-01-27T12:31:47.961Z,14.43
2023-01-27T12:34:28.358Z,11.90
2023-01-27T12:36:56.155Z,21.08
2023-01-27T12:39:27.289Z,9.73
2023-01-27T12:41:54.437Z,19.05
2023-01-27T12:44:23.271Z,7.88
2023-01-27T12:47:15.037Z,6.70
2023-01-27T12:49:44.632Z,5.82
2023-01-27T12:52:19.961Z,5.77
2023-01-27T12:54:47.117Z,5.82
2023-01-27T12:57:18.771Z,5.35
2023-01-27T12:59:51.068Z,5.88
2023-01-27T13:02:34.115Z,5.40
2023-01-27T13:05:04.908Z,5.43
2023-01-27T13:07:43.542Z,5.75
2023-01-27T13:10:20.912Z,5.90
2023-01-27T13:12:52.090Z,5.43
2023-01-27T13:15:21.756Z,7.10
2023-01-27T13:17:51.497Z,6.75
2023-01-27T13:20:24.854Z,7.28
2023-01-27T13:23:29.188Z,6.45
2023-01-27T13:26:17.728Z,5.15
2023-01-27T13:28:52.620Z,12.23
2023-01-27T13:31:43.548Z,7.50
2023-01-27T13:34:50.153Z,7.18
2023-01-27T13:37:37.776Z,5.97
2023-01-27T13:40:14.001Z,6.40
2023-01-27T13:42:51.658Z,5.53
2023-01-27T13:45:23.181Z,5.23
2023-01-27T13:48:02.265Z,5.82
2023-01-27T13:50:37.708Z,5.85
2023-01-27T13:53:05.947Z,6.00
2023-01-27T13:55:59.956Z,5.80
2023-01-27T13:58:46.536Z,5.93
2023-01-27T14:01:19.440Z,5.90
2023-01-27T14:04:25.989Z,6.18
2023-01-27T14:06:57.183Z,5.90
2023-01-27T14:09:44.802Z,5.47
2023-01-27T14:12:38.981Z,6.40
2023-01-27T14:15:21.707Z,5.68
2023-01-27T14:18:09.915Z,4.95
2023-01-27T14:20:46.907Z,6.00
2023-01-27T14:23:26.122Z,5.55
2023-01-27T14:26:19.975Z,6.50
2023-01-27T14:29:06.532Z,5.78
2023-01-27T14:31:37.673Z,6.60
2023-01-27T14:34:32.066Z,4.97
2023-01-27T14:37:22.813Z,5.20
2023-01-27T14:39:52.748Z,5.80
2023-01-27T14:42:49.684Z,5.20
2023-01-27T14:45:25.345Z,5.50
2023-01-27T14:48:02.511Z,5.25
2023-01-27T14:50:53.629Z,5.10
2023-01-27T14:53:31.795Z,5.07
2023-01-27T14:56:23.964Z,5.30
2023-01-27T14:59:11.541Z,4.95
2023-01-27T15:02:01.462Z,5.47
2023-01-27T15:04:37.402Z,4.93
2023-01-27T15:07:04.069Z,5.65
2023-01-27T15:09:43.738Z,5.10
2023-01-27T15:12:34.716Z,5.82
2023-01-27T15:15:03.185Z,5.93
2023-01-27T15:17:57.438Z,6.10
2023-01-27T15:21:04.026Z,6.10
2023-01-27T15:23:57.123Z,6.68
2023-01-27T15:26:26.946Z,5.82
2023-01-27T15:28:54.985Z,5.50
2023-01-27T15:31:25.707Z,5.25
2023-01-27T15:33:56.010Z,5.72
2023-01-27T15:36:33.131Z,6.60
2023-01-27T15:39:02.387Z,7.72
2023-01-27T15:41:29.466Z,8.48
2023-01-27T15:44:17.288Z,8.43
2023-01-27T15:46:48.768Z,7.05
2023-01-27T15:49:22.923Z,7.25
2023-01-27T15:51:52.550Z,8.02
2023-01-27T15:54:26.031Z,5.20
2023-01-27T15:56:54.546Z,5.53
2023-01-27T15:59:29.706Z,5.57
2023-01-27T16:02:02.751Z,5.85
2023-01-27T16:04:32.206Z,7.07
2023-01-27T16:07:02.885Z,5.70
2023-01-27T16:09:51.280Z,5.55
2023-01-27T16:12:28.793Z,6.15
2023-01-27T16:15:01.222Z,5.83
2023-01-27T16:17:32.948Z,5.20
2023-01-27T16:20:28.079Z,6.03
2023-01-27T16:23:02.073Z,6.37
2023-01-27T16:25:39.790Z,5.50
2023-01-27T16:28:14.646Z,6.60
2023-01-27T16:30:56.712Z,6.28
2023-01-27T16:33:31.047Z,7.22
2023-01-27T16:36:07.001Z,6.25
2023-01-27T16:38:38.768Z,9.40
2023-01-27T16:41:37.670Z,7.40
2023-01-27T16:44:19.854Z,8.52
2023-01-27T16:46:50.411Z,7.05
2023-01-27T16:49:25.689Z,6.10
2023-01-27T16:51:58.180Z,6.75
2023-01-27T16:54:36.251Z,6.90
2023-01-27T16:57:05.077Z,6.57
2023-01-27T16:59:36.052Z,6.88
2023-01-27T17:02:12.991Z,7.00
2023-01-27T17:04:39.957Z,7.85
2023-01-27T17:07:11.984Z,7.77
2023-01-27T17:09:42.264Z,7.97
2023-01-27T17:12:30.755Z,7.20
2023-01-27T17:15:00.283Z,8.23
2023-01-27T17:17:29.307Z,9.33
2023-01-27T17:20:02.697Z,11.93
2023-01-27T17:22:38.824Z,13.32
2023-01-27T17:25:16.785Z,23.02
2023-01-27T17:27:44.902Z,9.85
2023-01-27T17:30:24.087Z,19.70
2023-01-27T17:32:55.313Z,16.13
2023-01-27T17:35:25.386Z,11.88
2023-01-27T17:37:52.884Z,16.27
2023-01-27T17:40:22.626Z,20.30
2023-01-27T17:42:49.923Z,25.15
2023-01-27T17:45:32.128Z,16.85
2023-01-27T17:48:00.233Z,14.30
2023-01-27T17:50:36.203Z,11.05
2023-01-27T17:53:07.150Z,9.90
2023-01-27T17:55:34.020Z,10.60
2023-01-27T17:58:05.786Z,10.98
2023-01-27T18:00:38.072Z,9.20
2023-01-27T18:03:14.257Z,9.63
2023-01-27T18:05:45.144Z,10.52
2023-01-27T18:08:12.095Z,9.73
2023-01-27T18:10:43.991Z,9.18
2023-01-27T18:13:18.254Z,10.02
2023-01-27T18:15:50.945Z,8.82
2023-01-27T18:18:24.291Z,8.40
2023-01-27T18:21:03.895Z,8.95
2023-01-27T18:23:34.691Z,8.63
2023-01-27T18:26:06.649Z,9.05
2023-01-27T18:28:36.521Z,8.68
2023-01-27T18:31:03.555Z,10.05
2023-01-27T18:33:33.061Z,9.38
2023-01-27T18:36:00.973Z,8.75
2023-01-27T18:38:32.660Z,9.07
2023-01-27T18:41:24.063Z,8.63
2023-01-27T18:43:50.767Z,9.65
2023-01-27T18:46:17.569Z,9.10
2023-01-27T18:48:44.527Z,9.90
2023-01-27T18:51:14.354Z,8.10
2023-01-27T18:53:41.430Z,8.93
2023-01-27T18:56:09.032Z,8.48
2023-01-27T18:58:36.541Z,9.15
2023-01-27T19:01:05.560Z,9.35
2023-01-27T19:03:37.016Z,9.02
2023-01-27T19:06:03.792Z,12.57
2023-01-27T19:08:30.535Z,8.15
2023-01-27T19:10:57.280Z,8.80
2023-01-27T19:13:23.997Z,8.27
2023-01-27T19:15:53.888Z,7.25
2023-01-27T19:18:26.071Z,7.85
2023-01-27T19:20:52.904Z,7.87
2023-01-27T19:23:21.145Z,6.72
2023-01-27T19:25:51.249Z,6.93
2023-01-27T19:28:28.771Z,7.28
2023-01-27T19:30:55.935Z,7.35
2023-01-27T19:33:24.744Z,6.47
2023-01-27T19:35:55.783Z,8.73
2023-01-27T19:38:24.769Z,6.80
2023-01-27T19:40:51.436Z,6.85
2023-01-27T19:43:18.168Z,8.57
2023-01-27T19:45:48.557Z,6.13
2023-01-27T19:48:18.023Z,4.88
2023-01-27T19:50:45.093Z,5.70
2023-01-27T19:53:13.483Z,5.85
2023-01-27T19:55:40.439Z,4.70
2023-01-27T19:58:07.137Z,5.22
2023-01-27T20:00:37.033Z,5.85
2023-01-27T20:03:04.193Z,6.50
2023-01-27T20:05:35.223Z,5.28
2023-01-27T20:08:02.347Z,5.20
2023-01-27T20:10:32.533Z,8.02
2023-01-27T20:13:01.811Z,7.60
2023-01-27T20:15:32.148Z,6.57
2023-01-27T20:17:59.159Z,13.52
2023-01-27T20:20:27.503Z,7.35
2023-01-27T20:22:54.312Z,12.50
2023-01-27T20:25:23.840Z,14.85
2023-01-27T20:27:53.139Z,9.20
2023-01-27T20:30:22.386Z,4.60
2023-01-27T20:32:49.194Z,4.63
2023-01-27T20:35:17.750Z,5.57
2023-01-27T20:37:45.937Z,6.57
2023-01-27T20:40:14.839Z,6.20
2023-01-27T20:42:41.670Z,4.75
2023-01-27T20:45:08.850Z,4.38
2023-01-27T20:47:35.524Z,5.65
2023-01-27T20:50:02.321Z,4.70
2023-01-27T20:52:29.343Z,4.47
2023-01-27T20:54:56.039Z,5.60
2023-01-27T20:57:23.947Z,4.95
2023-01-27T20:59:50.716Z,5.60
2023-01-27T21:02:17.557Z,4.80
2023-01-27T21:04:44.572Z,4.55
2023-01-27T21:07:11.446Z,4.45
2023-01-27T21:09:38.136Z,5.20
2023-01-27T21:12:04.967Z,5.28
2023-01-27T21:14:32.539Z,4.38
2023-01-27T21:16:59.260Z,4.20
2023-01-27T21:19:25.996Z,4.72
2023-01-27T21:21:52.709Z,5.00
2023-01-27T21:24:19.635Z,4.45
2023-01-27T21:26:46.371Z,4.40
2023-01-27T21:29:13.088Z,4.70
2023-01-27T21:31:40.479Z,4.28
2023-01-27T21:34:10.160Z,3.80
2023-01-27T21:36:37.550Z,3.90
2023-01-27T21:39:05.491Z,3.90
2023-01-27T21:41:52.837Z,3.65
2023-01-27T21:44:43.957Z,3.73
2023-01-27T21:47:14.722Z,3.60
2023-01-27T21:50:03.603Z,3.70
2023-01-27T21:52:35.346Z,3.35
2023-01-27T21:55:04.306Z,3.40
2023-01-27T21:57:31.546Z,3.50
2023-01-27T21:59:58.325Z,3.53
2023-01-27T22:02:25.625Z,3.65
2023-01-27T22:04:52.452Z,3.70
2023-01-27T22:07:19.680Z,3.67
2023-01-27T22:09:46.825Z,4.03
2023-01-27T22:12:15.353Z,3.90
2023-01-27T22:14:42.776Z,4.13
2023-01-27T22:17:10.255Z,3.97
2023-01-27T22:19:39.071Z,4.40
2023-01-27T22:22:07.630Z,4.57
2023-01-27T22:24:34.389Z,4.10
2023-01-27T22:27:01.059Z,4.30
2023-01-27T22:29:27.782Z,4.45
2023-01-27T22:31:54.608Z,4.63
2023-01-27T22:34:21.651Z,4.80
2023-01-27T22:36:51.837Z,4.60
2023-01-27T22:39:19.094Z,4.73
2023-01-27T22:41:46.599Z,4.75
2023-01-27T22:44:14.130Z,4.80
2023-01-27T22:46:41.609Z,4.87
2023-01-27T22:49:09.486Z,4.20
2023-01-27T22:51:36.640Z,4.10
2023-01-27T22:54:03.337Z,4.50
2023-01-27T22:56:30.134Z,4.43
2023-01-27T22:58:56.852Z,4.43
2023-01-27T23:01:23.620Z,4.97
2023-01-27T23:03:50.241Z,4.10
2023-01-27T23:06:17.071Z,4.65
2023-01-27T23:08:43.801Z,5.00
2023-01-27T23:11:10.442Z,4.22
2023-01-27T23:13:37.249Z,4.40
2023-01-27T23:16:04.418Z,4.20
2023-01-27T23:18:31.181Z,4.03
2023-01-27T23:21:03.331Z,4.60
2023-01-27T23:23:30.009Z,3.70
2023-01-27T23:25:56.712Z,3.78
2023-01-27T23:28:23.368Z,4.10
2023-01-27T23:30:51.253Z,3.80
2023-01-27T23:33:19.254Z,4.22
2023-01-27T23:35:46.371Z,3.70
2023-01-27T23:38:30.382Z,3.58
2023-01-27T23:41:03.101Z,4.05
2023-01-27T23:43:31.049Z,3.88
2023-01-27T23:45:58.105Z,3.85
2023-01-27T23:48:25.435Z,4.00
2023-01-27T23:50:52.329Z,3.95
2023-01-27T23:53:20.505Z,3.75
2023-01-27T23:55:56.269Z,3.75
2023-01-27T23:58:23.153Z,3.78
